Bond, Oklahoma
Current Conditions -  °F | °C
As of 7:53 AM on Saturday 25 Oct 2014 (Local Time) from KMKO Reporting Station
Clear Clear  
Wind Chill: 59°   Ceiling: Unl
Heat Index: 59°   Visibility: 7mi
Dew Point: 56°   Wind: 6mph
Humidity: 90%   Direction: 150°SSE
Pressure: 30.09"   Gusts: NA
Location:  35.4498°N, 95.4869°W
Report Text: KMKO 251253Z AUTO 15005KT 7SM CLR 15/13 A3009 RMK AO2 SLP187 T01500133
Loading
Personal Weather Stations






























Interactive Weather Map
Tropical Storm Tracking
New forecast layout! Learn more

10-Day Weather Forecast

Advertisements
Track Severe Weather on mobile